Time;durP1;ratioP1;P1;durP2;ratioP2;P2;SDS_P1;SDS_P2;PMS_P1;PMS_P2;Temp;Humidity;BMP_temperature;BMP_pressure;BME280_temperature;BME280_humidity;BME280_pressure;Samples;Min_cycle;Max_cycle;Signal;HPM_P1;HPM_P2
2022/12/14 00:00:00;;;;;;;96.28;41.13;;;;;;;;;;5015294;28;20539;-74
2022/12/14 00:02:26;;;;;;;97.30;39.72;;;;;;;;;;5015138;28;20041;-74
2022/12/14 00:04:52;;;;;;;98.40;40.83;;;;;;;;;;5015364;28;20472;-74
2022/12/14 00:07:18;;;;;;;89.65;38.67;;;;;;;;;;5012973;28;20108;-74
2022/12/14 00:09:45;;;;;;;95.10;39.92;;;;;;;;;;5013604;28;20026;-73
2022/12/14 00:12:11;;;;;;;91.63;39.28;;;;;;;;;;5010510;28;20441;-72
2022/12/14 00:14:38;;;;;;;103.53;40.95;;;;;;;;;;5013525;28;20105;-73
2022/12/14 00:17:04;;;;;;;94.47;39.83;;;;;;;;;;5015335;28;20096;-73
2022/12/14 00:19:31;;;;;;;93.72;39.47;;;;;;;;;;5015831;28;20077;-73
2022/12/14 00:21:57;;;;;;;92.93;38.75;;;;;;;;;;5015334;28;20038;-76
2022/12/14 00:24:23;;;;;;;94.40;38.58;;;;;;;;;;5015644;28;20061;-75
2022/12/14 00:26:49;;;;;;;94.13;39.65;;;;;;;;;;5028651;28;20071;-73
2022/12/14 00:29:15;;;;;;;92.00;39.63;;;;;;;;;;5016283;28;20022;-75
2022/12/14 00:31:41;;;;;;;92.35;39.08;;;;;;;;;;5014489;28;20112;-75
2022/12/14 00:34:07;;;;;;;90.80;38.90;;;;;;;;;;5013405;28;20033;-74
2022/12/14 00:36:35;;;;;;;95.50;39.35;;;;;;;;;;5014055;28;20052;-74
2022/12/14 00:39:01;;;;;;;90.45;37.95;;;;;;;;;;5014754;28;20473;-74
2022/12/14 00:41:27;;;;;;;83.32;36.22;;;;;;;;;;5014290;28;20061;-73
2022/12/14 00:43:53;;;;;;;94.68;39.47;;;;;;;;;;5015733;28;20026;-74
2022/12/14 00:46:19;;;;;;;89.55;37.25;;;;;;;;;;5026320;28;20026;-74
2022/12/14 00:48:45;;;;;;;88.45;36.80;;;;;;;;;;5018023;28;20026;-74
2022/12/14 00:51:13;;;;;;;86.30;37.00;;;;;;;;;;5034815;28;20042;-71
2022/12/14 00:53:39;;;;;;;95.10;38.55;;;;;;;;;;5039674;28;20014;-73
2022/12/14 00:56:06;;;;;;;86.32;37.10;;;;;;;;;;5038979;28;20034;-74
2022/12/14 00:58:32;;;;;;;97.30;37.40;;;;;;;;;;5039125;28;20026;-73
2022/12/14 01:00:59;;;;;;;85.60;36.78;;;;;;;;;;5037424;28;20036;-73
2022/12/14 01:03:25;;;;;;;85.63;35.97;;;;;;;;;;5040134;28;20025;-74
2022/12/14 01:05:51;;;;;;;82.63;35.90;;;;;;;;;;5046679;28;20036;-74
2022/12/14 01:08:17;;;;;;;88.95;34.65;;;;;;;;;;5042301;28;20101;-74
2022/12/14 01:10:43;;;;;;;85.85;36.55;;;;;;;;;;5034144;28;20059;-75
2022/12/14 01:13:10;;;;;;;89.30;35.97;;;;;;;;;;5034080;28;20052;-74
2022/12/14 01:15:36;;;;;;;86.32;35.97;;;;;;;;;;5033396;28;20450;-74
2022/12/14 01:18:02;;;;;;;88.53;35.75;;;;;;;;;;5033831;28;20084;-74
2022/12/14 01:20:28;;;;;;;84.57;34.97;;;;;;;;;;5033524;28;20033;-75
2022/12/14 01:22:55;;;;;;;78.88;34.42;;;;;;;;;;5033577;28;20486;-76
2022/12/14 01:25:21;;;;;;;83.82;34.75;;;;;;;;;;5032371;28;20109;-74
2022/12/14 01:27:46;;;;;;;83.25;35.53;;;;;;;;;;5033169;28;20505;-74
2022/12/14 01:30:12;;;;;;;86.63;35.28;;;;;;;;;;5033568;28;20076;-76
2022/12/14 01:32:38;;;;;;;83.32;34.55;;;;;;;;;;5033535;28;20312;-75
2022/12/14 01:35:04;;;;;;;87.47;34.85;;;;;;;;;;5033505;28;20490;-75
2022/12/14 01:37:30;;;;;;;84.22;34.00;;;;;;;;;;5033047;28;20457;-74
2022/12/14 01:39:56;;;;;;;82.10;33.85;;;;;;;;;;5033478;28;20033;-76
2022/12/14 01:42:22;;;;;;;73.28;32.35;;;;;;;;;;5033318;28;20441;-74
2022/12/14 01:44:53;;;;;;;77.43;32.50;;;;;;;;;;5034943;28;20387;-75
2022/12/14 01:47:21;;;;;;;79.90;34.17;;;;;;;;;;5033569;28;20467;-75
2022/12/14 01:49:50;;;;;;;76.30;32.67;;;;;;;;;;5033758;28;20057;-75
2022/12/14 01:52:22;;;;;;;79.60;33.10;;;;;;;;;;5032984;28;20029;-75
2022/12/14 01:54:51;;;;;;;81.95;32.60;;;;;;;;;;5033157;28;20022;-75
2022/12/14 01:57:18;;;;;;;81.97;33.47;;;;;;;;;;5032535;28;20481;-74
2022/12/14 01:59:45;;;;;;;80.15;33.03;;;;;;;;;;5031803;28;20459;-75
2022/12/14 02:02:13;;;;;;;77.72;33.03;;;;;;;;;;5031491;28;20041;-74
2022/12/14 02:04:40;;;;;;;70.45;30.75;;;;;;;;;;5031482;28;20034;-75
2022/12/14 02:07:07;;;;;;;87.90;32.58;;;;;;;;;;5032619;28;20386;-76
2022/12/14 02:09:35;;;;;;;82.13;32.42;;;;;;;;;;5033099;28;20116;-76
2022/12/14 02:12:16;;;;;;;81.47;33.03;;;;;;;;;;5032795;28;20025;-75
2022/12/14 02:14:43;;;;;;;72.85;31.23;;;;;;;;;;5032629;28;20038;-75
2022/12/14 02:17:10;;;;;;;74.68;31.52;;;;;;;;;;5032460;28;20056;-74
2022/12/14 02:19:36;;;;;;;77.15;32.90;;;;;;;;;;5033659;28;20383;-75
2022/12/14 02:22:08;;;;;;;77.70;31.75;;;;;;;;;;5032712;28;20180;-75
2022/12/14 02:24:53;;;;;;;76.05;31.83;;;;;;;;;;5032621;28;20029;-74
2022/12/14 02:27:38;;;;;;;75.10;31.83;;;;;;;;;;5031909;28;20060;-74
2022/12/14 02:30:05;;;;;;;74.68;31.73;;;;;;;;;;5030756;28;20052;-74
2022/12/14 02:32:43;;;;;;;73.97;30.10;;;;;;;;;;5033110;28;20093;-75
2022/12/14 02:35:11;;;;;;;73.30;30.88;;;;;;;;;;5035614;28;20056;-75
2022/12/14 02:37:58;;;;;;;74.25;30.17;;;;;;;;;;5036037;28;20045;-75
2022/12/14 02:40:29;;;;;;;70.78;29.08;;;;;;;;;;5038615;28;20116;-75
2022/12/14 02:43:16;;;;;;;65.72;28.58;;;;;;;;;;5032504;28;20029;-77
2022/12/14 02:45:45;;;;;;;67.43;28.52;;;;;;;;;;5031862;28;20443;-73
2022/12/14 02:48:11;;;;;;;65.57;27.58;;;;;;;;;;5032130;28;20037;-75
2022/12/14 02:50:50;;;;;;;70.82;28.58;;;;;;;;;;5031882;28;20025;-75
2022/12/14 02:53:22;;;;;;;67.70;29.63;;;;;;;;;;5032262;28;20025;-74
2022/12/14 02:55:50;;;;;;;64.72;27.55;;;;;;;;;;5031683;28;20375;-74
2022/12/14 02:58:19;;;;;;;73.57;29.25;;;;;;;;;;5032850;28;20096;-74
2022/12/14 03:00:46;;;;;;;69.18;28.25;;;;;;;;;;5033226;28;20037;-76
2022/12/14 03:03:12;;;;;;;71.55;28.70;;;;;;;;;;5019636;28;20033;-75
2022/12/14 03:05:38;;;;;;;64.97;26.23;;;;;;;;;;5014260;28;20033;-76
2022/12/14 03:08:13;;;;;;;62.40;26.10;;;;;;;;;;5013971;28;20076;-76
2022/12/14 03:11:01;;;;;;;58.70;26.42;;;;;;;;;;5013453;28;20033;-76
2022/12/14 03:13:36;;;;;;;62.58;27.35;;;;;;;;;;5013149;28;20391;-77
2022/12/14 03:16:05;;;;;;;61.45;25.48;;;;;;;;;;5013763;28;20026;-76
2022/12/14 03:18:37;;;;;;;72.25;28.77;;;;;;;;;;5015702;28;20098;-76
2022/12/14 03:21:05;;;;;;;67.68;26.45;;;;;;;;;;5013475;28;20034;-78
2022/12/14 03:23:33;;;;;;;65.80;27.75;;;;;;;;;;5015759;28;20185;-78
2022/12/14 03:26:02;;;;;;;71.97;27.73;;;;;;;;;;5011964;28;20434;-75
2022/12/14 03:28:36;;;;;;;67.05;28.95;;;;;;;;;;5012092;28;20026;-75
2022/12/14 03:31:04;;;;;;;71.22;28.52;;;;;;;;;;5011699;28;20493;-75
2022/12/14 03:33:31;;;;;;;66.28;28.08;;;;;;;;;;5011885;28;20036;-75
2022/12/14 03:36:01;;;;;;;66.40;26.10;;;;;;;;;;5011057;28;20026;-74
2022/12/14 03:38:33;;;;;;;63.50;26.00;;;;;;;;;;5011886;28;20022;-75
2022/12/14 03:41:05;;;;;;;61.95;26.17;;;;;;;;;;5011437;28;20072;-75
2022/12/14 03:43:41;;;;;;;63.75;27.65;;;;;;;;;;5011529;28;20037;-75
2022/12/14 03:46:10;;;;;;;59.83;26.58;;;;;;;;;;5011352;28;20356;-75
2022/12/14 03:48:39;;;;;;;68.10;28.60;;;;;;;;;;5011906;28;20417;-74
2022/12/14 03:51:23;;;;;;;61.50;26.27;;;;;;;;;;5015442;28;20521;-75
2022/12/14 03:54:03;;;;;;;65.25;26.90;;;;;;;;;;5015662;28;20030;-75
2022/12/14 03:56:53;;;;;;;60.78;25.67;;;;;;;;;;5015126;28;20046;-75
2022/12/14 03:59:38;;;;;;;61.08;26.23;;;;;;;;;;5015389;28;20101;-73
2022/12/14 04:02:08;;;;;;;64.00;26.50;;;;;;;;;;5015595;28;20403;-74
2022/12/14 04:04:47;;;;;;;69.78;27.65;;;;;;;;;;5015253;28;20084;-75
2022/12/14 04:07:16;;;;;;;65.10;27.40;;;;;;;;;;5015579;28;20068;-74
2022/12/14 04:09:48;;;;;;;69.80;27.10;;;;;;;;;;5015454;28;20041;-75
2022/12/14 04:20:46;;;;;;;65.57;29.48;;;;;;;;;;5015507;28;20064;-74
2022/12/14 04:26:01;;;;;;;67.70;27.52;;;;;;;;;;5018947;28;20475;-76
2022/12/14 04:26:03;;;;;;;65.80;26.83;;;;;;;;;;5016473;28;20041;-76
2022/12/14 04:31:20;;;;;;;66.22;28.80;;;;;;;;;;5016233;28;20454;-75
2022/12/14 04:33:52;;;;;;;77.82;29.88;;;;;;;;;;5016343;28;20030;-76
2022/12/14 04:36:33;;;;;;;74.70;29.85;;;;;;;;;;5015456;28;20029;-76
2022/12/14 04:39:02;;;;;;;81.75;29.88;;;;;;;;;;5015489;28;20030;-74
2022/12/14 04:41:30;;;;;;;66.82;26.67;;;;;;;;;;5015004;28;20025;-75
2022/12/14 04:43:59;;;;;;;63.95;27.65;;;;;;;;;;5019550;28;20057;-76
2022/12/14 04:46:28;;;;;;;62.90;26.85;;;;;;;;;;5025897;28;20036;-74
2022/12/14 04:49:00;;;;;;;64.00;25.95;;;;;;;;;;5020946;28;20068;-75
2022/12/14 04:51:35;;;;;;;67.28;27.50;;;;;;;;;;5019720;28;20026;-75
2022/12/14 04:54:05;;;;;;;60.00;26.08;;;;;;;;;;5023111;28;20022;-75
2022/12/14 04:56:39;;;;;;;66.22;28.77;;;;;;;;;;5014028;28;20309;-75
2022/12/14 04:59:05;;;;;;;69.28;28.30;;;;;;;;;;5014556;28;20375;-75
2022/12/14 05:01:38;;;;;;;59.70;26.70;;;;;;;;;;5013958;28;20026;-74
2022/12/14 05:04:13;;;;;;;47.20;19.60;;;;;;;;;;5014092;28;20026;-76
2022/12/14 05:06:49;;;;;;;60.60;24.88;;;;;;;;;;5013858;28;20491;-74
2022/12/14 05:09:27;;;;;;;58.05;25.25;;;;;;;;;;5014021;28;20486;-75
2022/12/14 05:12:00;;;;;;;60.47;25.33;;;;;;;;;;5013747;28;20025;-75
2022/12/14 05:14:38;;;;;;;57.97;25.70;;;;;;;;;;5014373;28;20037;-76
2022/12/14 05:17:05;;;;;;;67.70;26.23;;;;;;;;;;5015197;28;20026;-75
2022/12/14 05:19:30;;;;;;;62.15;25.40;;;;;;;;;;5017255;28;20067;-74
2022/12/14 05:21:57;;;;;;;63.22;25.48;;;;;;;;;;5014619;28;20038;-74
2022/12/14 05:24:23;;;;;;;69.28;28.63;;;;;;;;;;5018811;28;20472;-75
2022/12/14 05:26:49;;;;;;;61.60;25.67;;;;;;;;;;5019511;28;20110;-75
2022/12/14 05:29:16;;;;;;;59.45;25.75;;;;;;;;;;5016945;28;20076;-75
2022/12/14 05:31:42;;;;;;;63.65;27.08;;;;;;;;;;5015571;28;20471;-76
2022/12/14 05:34:08;;;;;;;61.95;27.05;;;;;;;;;;5016554;28;20041;-75
2022/12/14 05:36:34;;;;;;;68.90;28.27;;;;;;;;;;5014541;28;20064;-74
2022/12/14 05:39:00;;;;;;;80.55;30.95;;;;;;;;;;5016269;28;20026;-76
2022/12/14 05:41:26;;;;;;;63.45;27.25;;;;;;;;;;5013810;28;20061;-75
2022/12/14 05:43:52;;;;;;;64.22;27.92;;;;;;;;;;5013126;28;20060;-74
2022/12/14 05:46:18;;;;;;;65.63;26.58;;;;;;;;;;5012464;28;20030;-78
2022/12/14 05:48:44;;;;;;;66.93;26.85;;;;;;;;;;5015905;28;20022;-74
2022/12/14 05:51:11;;;;;;;67.80;26.73;;;;;;;;;;5016457;28;20026;-77
2022/12/14 05:53:38;;;;;;;64.43;28.13;;;;;;;;;;5014680;28;20053;-78
2022/12/14 05:56:04;;;;;;;72.63;29.80;;;;;;;;;;5015539;28;20029;-74
2022/12/14 05:58:31;;;;;;;65.10;28.40;;;;;;;;;;5013517;28;20399;-76
2022/12/14 06:01:05;;;;;;;72.88;29.95;;;;;;;;;;5013436;28;20022;-75
2022/12/14 06:03:30;;;;;;;70.95;28.55;;;;;;;;;;5014259;28;20034;-75
2022/12/14 06:06:00;;;;;;;68.57;29.80;;;;;;;;;;5012658;28;20022;-74
2022/12/14 06:08:26;;;;;;;67.72;27.98;;;;;;;;;;5013248;28;20025;-75
2022/12/14 06:10:52;;;;;;;67.63;28.83;;;;;;;;;;5012838;28;20032;-75
2022/12/14 06:13:18;;;;;;;75.38;30.48;;;;;;;;;;5012425;28;20034;-75
2022/12/14 06:15:44;;;;;;;76.28;29.13;;;;;;;;;;5012945;28;20025;-75
2022/12/14 06:18:10;;;;;;;72.22;29.58;;;;;;;;;;5013137;28;20033;-74
2022/12/14 06:20:36;;;;;;;66.20;28.60;;;;;;;;;;5038221;22;20037;-82
2022/12/14 06:23:03;;;;;;;72.07;29.77;;;;;;;;;;5032728;28;20411;-82
2022/12/14 06:25:29;;;;;;;69.20;29.55;;;;;;;;;;5030119;28;20076;-81
2022/12/14 06:27:55;;;;;;;67.22;30.00;;;;;;;;;;5028814;28;20037;-81
2022/12/14 06:30:21;;;;;;;67.68;30.27;;;;;;;;;;5021586;28;20030;-80
2022/12/14 06:32:47;;;;;;;70.43;30.50;;;;;;;;;;5009694;28;20026;-80
2022/12/14 06:35:13;;;;;;;68.78;29.50;;;;;;;;;;5002974;28;20035;-82
2022/12/14 06:37:39;;;;;;;73.53;30.38;;;;;;;;;;5002476;28;20481;-81
2022/12/14 06:40:06;;;;;;;68.72;30.08;;;;;;;;;;5006008;28;20082;-80
2022/12/14 06:42:32;;;;;;;75.25;30.73;;;;;;;;;;5021016;28;20090;-79
2022/12/14 06:44:58;;;;;;;72.90;30.23;;;;;;;;;;5010258;28;20034;-79
2022/12/14 06:47:24;;;;;;;75.78;31.42;;;;;;;;;;5015530;28;20037;-81
2022/12/14 06:49:50;;;;;;;69.93;31.42;;;;;;;;;;5013124;28;20014;-78
2022/12/14 06:52:16;;;;;;;80.80;30.13;;;;;;;;;;5016192;28;20018;-81
2022/12/14 06:54:42;;;;;;;79.63;30.95;;;;;;;;;;5015117;28;20395;-80
2022/12/14 06:57:08;;;;;;;73.32;30.60;;;;;;;;;;5014180;28;20034;-82
2022/12/14 06:59:34;;;;;;;71.43;29.95;;;;;;;;;;5012801;28;20022;-82
2022/12/14 07:02:00;;;;;;;75.97;32.47;;;;;;;;;;5013447;28;20097;-81
2022/12/14 07:04:26;;;;;;;68.53;30.98;;;;;;;;;;5014133;28;20022;-79
2022/12/14 07:06:52;;;;;;;72.97;31.40;;;;;;;;;;5012490;28;20022;-79
2022/12/14 07:09:18;;;;;;;78.18;31.27;;;;;;;;;;5011869;28;20092;-80
2022/12/14 07:11:44;;;;;;;85.90;32.17;;;;;;;;;;5010087;28;20026;-82
2022/12/14 07:14:14;;;;;;;78.07;32.63;;;;;;;;;;5008291;28;20021;-81
2022/12/14 07:16:40;;;;;;;81.93;32.60;;;;;;;;;;5009257;28;20014;-78
2022/12/14 07:19:06;;;;;;;75.03;32.78;;;;;;;;;;5016499;28;20042;-81
2022/12/14 07:21:32;;;;;;;77.05;31.75;;;;;;;;;;5015544;28;20050;-80
2022/12/14 07:23:59;;;;;;;72.10;30.88;;;;;;;;;;5015002;28;20220;-79
2022/12/14 07:26:26;;;;;;;89.80;34.00;;;;;;;;;;5019189;28;20026;-80
2022/12/14 07:28:52;;;;;;;81.85;34.30;;;;;;;;;;5017375;28;20034;-80
2022/12/14 07:31:19;;;;;;;74.10;32.83;;;;;;;;;;5014014;28;20057;-80
2022/12/14 07:33:46;;;;;;;73.50;32.55;;;;;;;;;;5021221;28;20042;-81
2022/12/14 07:36:14;;;;;;;78.43;32.20;;;;;;;;;;5019783;28;20029;-80
2022/12/14 07:38:41;;;;;;;80.40;33.05;;;;;;;;;;5020696;28;20023;-79
2022/12/14 07:41:11;;;;;;;83.82;34.53;;;;;;;;;;5015822;28;20030;-81
2022/12/14 07:43:41;;;;;;;78.85;33.63;;;;;;;;;;5013660;28;20033;-82
2022/12/14 07:46:09;;;;;;;86.30;34.00;;;;;;;;;;5011329;28;20031;-80
2022/12/14 07:48:35;;;;;;;74.22;32.55;;;;;;;;;;5014293;28;20018;-79
2022/12/14 07:51:01;;;;;;;83.38;33.33;;;;;;;;;;5014976;28;20038;-81
2022/12/14 07:53:27;;;;;;;83.20;34.50;;;;;;;;;;5012299;28;20081;-82
2022/12/14 07:55:53;;;;;;;88.25;36.03;;;;;;;;;;5015445;28;20022;-79
2022/12/14 07:58:19;;;;;;;78.45;34.58;;;;;;;;;;5015550;28;20037;-81
2022/12/14 08:00:47;;;;;;;83.35;34.85;;;;;;;;;;5015709;28;20131;-81
2022/12/14 08:03:13;;;;;;;82.50;34.60;;;;;;;;;;5018758;28;19998;-80
2022/12/14 08:05:40;;;;;;;81.05;35.45;;;;;;;;;;5017313;28;20546;-82
2022/12/14 08:08:06;;;;;;;82.80;34.53;;;;;;;;;;5016583;28;20082;-81
2022/12/14 08:10:32;;;;;;;80.28;33.60;;;;;;;;;;5012582;28;20045;-82
2022/12/14 08:12:58;;;;;;;83.53;33.72;;;;;;;;;;5012777;28;20030;-80
2022/12/14 08:15:23;;;;;;;78.85;33.78;;;;;;;;;;5012144;28;20034;-82
2022/12/14 08:17:49;;;;;;;84.65;36.05;;;;;;;;;;5014760;28;20030;-80
2022/12/14 08:20:15;;;;;;;83.85;35.67;;;;;;;;;;5019736;28;20018;-80
2022/12/14 08:22:41;;;;;;;99.00;36.92;;;;;;;;;;5016204;28;20324;-82
2022/12/14 08:25:08;;;;;;;73.68;32.50;;;;;;;;;;5008680;28;20054;-82
2022/12/14 08:27:34;;;;;;;80.35;33.90;;;;;;;;;;5007515;28;20364;-82
2022/12/14 08:30:00;;;;;;;82.07;34.42;;;;;;;;;;5007893;28;20085;-79
2022/12/14 08:32:26;;;;;;;91.78;35.33;;;;;;;;;;5012657;28;20018;-82
2022/12/14 08:34:52;;;;;;;82.80;34.30;;;;;;;;;;5019602;28;20026;-80
2022/12/14 08:37:18;;;;;;;82.00;34.60;;;;;;;;;;5019700;28;20032;-80
2022/12/14 08:39:44;;;;;;;82.85;34.53;;;;;;;;;;5017894;28;20030;-79
2022/12/14 08:42:10;;;;;;;91.10;34.63;;;;;;;;;;5015110;28;20102;-81
2022/12/14 08:44:36;;;;;;;79.03;33.63;;;;;;;;;;5009922;28;20037;-80
2022/12/14 08:47:01;;;;;;;83.82;35.70;;;;;;;;;;5015507;28;20010;-79
2022/12/14 08:49:27;;;;;;;80.63;34.55;;;;;;;;;;5014530;28;20403;-79
2022/12/14 08:51:53;;;;;;;84.07;35.35;;;;;;;;;;5010506;28;20093;-82
2022/12/14 08:54:20;;;;;;;79.85;33.85;;;;;;;;;;5010967;28;20046;-80
2022/12/14 08:56:46;;;;;;;131.20;52.45;;;;;;;;;;5014073;28;20070;-81
2022/12/14 08:59:12;;;;;;;80.53;35.13;;;;;;;;;;5018456;28;20023;-79
2022/12/14 09:01:38;;;;;;;73.70;33.53;;;;;;;;;;5019797;28;20030;-80
2022/12/14 09:04:06;;;;;;;83.32;33.63;;;;;;;;;;5018844;28;20065;-81
2022/12/14 09:06:33;;;;;;;81.03;33.65;;;;;;;;;;5019559;28;20087;-81
2022/12/14 09:08:59;;;;;;;83.43;35.38;;;;;;;;;;5016609;28;20546;-80
2022/12/14 09:11:25;;;;;;;83.28;33.58;;;;;;;;;;5006609;28;20038;-81
2022/12/14 09:13:54;;;;;;;73.05;33.15;;;;;;;;;;5005942;28;20089;-82
2022/12/14 09:16:21;;;;;;;76.68;32.60;;;;;;;;;;5010135;28;20014;-81
2022/12/14 09:18:47;;;;;;;78.82;32.97;;;;;;;;;;5007473;28;20023;-81
2022/12/14 09:21:14;;;;;;;68.88;31.02;;;;;;;;;;5007121;28;20395;-79
2022/12/14 09:23:40;;;;;;;68.25;29.75;;;;;;;;;;5008463;28;20015;-82
2022/12/14 09:26:08;;;;;;;78.03;31.73;;;;;;;;;;5010308;28;20056;-81
2022/12/14 09:28:36;;;;;;;72.47;30.70;;;;;;;;;;5005667;28;20452;-82
2022/12/14 09:31:06;;;;;;;73.60;34.03;;;;;;;;;;5009360;28;20583;-81
2022/12/14 09:33:32;;;;;;;73.45;32.85;;;;;;;;;;5009890;28;20030;-80
2022/12/14 09:36:00;;;;;;;72.30;31.25;;;;;;;;;;5008419;28;20140;-81
2022/12/14 09:38:26;;;;;;;67.55;30.13;;;;;;;;;;5005299;28;20078;-81
2022/12/14 09:40:55;;;;;;;72.75;30.33;;;;;;;;;;5005874;28;20034;-83
2022/12/14 09:43:37;;;;;;;67.78;29.83;;;;;;;;;;5009726;28;20133;-79
2022/12/14 09:46:28;;;;;;;66.88;30.27;;;;;;;;;;5015767;28;20034;-78
2022/12/14 09:48:55;;;;;;;77.13;30.52;;;;;;;;;;5018285;28;20034;-77
2022/12/14 09:51:22;;;;;;;73.95;30.77;;;;;;;;;;5018404;28;20022;-80
2022/12/14 09:53:50;;;;;;;71.82;30.13;;;;;;;;;;5018385;28;20026;-79
2022/12/14 09:56:18;;;;;;;67.93;31.92;;;;;;;;;;5018257;28;20014;-80
2022/12/14 09:58:49;;;;;;;73.22;31.58;;;;;;;;;;5014185;28;20022;-82
2022/12/14 10:01:21;;;;;;;69.00;30.67;;;;;;;;;;5005261;28;20034;-80
2022/12/14 10:03:48;;;;;;;73.20;30.67;;;;;;;;;;5005010;28;20055;-80
2022/12/14 10:06:33;;;;;;;73.85;31.15;;;;;;;;;;5003463;28;20022;-79
2022/12/14 10:09:01;;;;;;;;;;;;;;;;;;5013621;28;20034;-79
2022/12/14 10:11:36;;;;;;;69.95;30.63;;;;;;;;;;5014018;28;19929;-79
2022/12/14 10:14:05;;;;;;;72.78;31.30;;;;;;;;;;5013816;28;20033;-79
2022/12/14 10:16:44;;;;;;;73.00;30.50;;;;;;;;;;5012467;28;20049;-80
2022/12/14 10:19:23;;;;;;;72.18;31.20;;;;;;;;;;5009256;28;20026;-81
2022/12/14 10:22:15;;;;;;;65.15;29.17;;;;;;;;;;5008415;28;20138;-81
2022/12/14 10:24:54;;;;;;;66.25;30.35;;;;;;;;;;5009947;28;20042;-81
2022/12/14 10:27:24;;;;;;;63.95;30.50;;;;;;;;;;5008788;28;20399;-80
2022/12/14 10:29:56;;;;;;;63.92;29.60;;;;;;;;;;5007494;28;20031;-82
2022/12/14 10:32:28;;;;;;;69.13;31.10;;;;;;;;;;5008719;28;20038;-79
2022/12/14 10:34:54;;;;;;;58.72;28.45;;;;;;;;;;5013733;28;20014;-80
2022/12/14 10:37:23;;;;;;;75.68;30.13;;;;;;;;;;5017702;28;20006;-79
2022/12/14 10:40:03;;;;;;;66.07;30.40;;;;;;;;;;5015376;28;20042;-82
2022/12/14 10:42:29;;;;;;;68.78;30.00;;;;;;;;;;5013008;28;20031;-80
2022/12/14 10:45:00;;;;;;;61.25;29.75;;;;;;;;;;5013927;28;20031;-83
2022/12/14 10:47:29;;;;;;;70.13;30.52;;;;;;;;;;5012104;28;20026;-83
2022/12/14 10:49:59;;;;;;;63.47;29.58;;;;;;;;;;5015870;28;20033;-82
2022/12/14 10:52:26;;;;;;;64.97;27.88;;;;;;;;;;5012542;28;20027;-81
2022/12/14 10:54:55;;;;;;;69.15;29.27;;;;;;;;;;5011893;28;20042;-78
2022/12/14 10:57:25;;;;;;;63.65;28.45;;;;;;;;;;5008587;28;20034;-81
2022/12/14 10:59:52;;;;;;;58.28;26.88;;;;;;;;;;5003344;28;20030;-80
2022/12/14 11:02:20;;;;;;;66.28;27.27;;;;;;;;;;5005602;28;20019;-81
2022/12/14 11:04:49;;;;;;;59.65;26.30;;;;;;;;;;5008197;28;20026;-82
2022/12/14 11:07:17;;;;;;;53.65;26.13;;;;;;;;;;5006070;28;20026;-81
2022/12/14 11:09:43;;;;;;;65.63;27.92;;;;;;;;;;5004033;28;20042;-80
2022/12/14 11:12:12;;;;;;;57.90;26.60;;;;;;;;;;5004439;28;20502;-81
2022/12/14 11:14:49;;;;;;;56.22;25.67;;;;;;;;;;5003941;28;20037;-81
2022/12/14 11:17:29;;;;;;;62.47;26.00;;;;;;;;;;5008513;28;20045;-80
2022/12/14 11:20:05;;;;;;;58.53;26.00;;;;;;;;;;5004653;28;20026;-81
2022/12/14 11:22:42;;;;;;;54.08;25.15;;;;;;;;;;5004667;28;20387;-81
2022/12/14 11:25:26;;;;;;;51.60;24.02;;;;;;;;;;5017635;28;20045;-80
2022/12/14 11:27:52;;;;;;;60.20;25.80;;;;;;;;;;5017426;28;20049;-79
2022/12/14 11:30:21;;;;;;;53.25;25.17;;;;;;;;;;5017525;28;20340;-81
2022/12/14 11:32:48;;;;;;;63.97;26.05;;;;;;;;;;5015647;28;20058;-81
2022/12/14 11:35:16;;;;;;;67.88;26.15;;;;;;;;;;5017160;28;20030;-80
2022/12/14 11:37:42;;;;;;;55.42;24.95;;;;;;;;;;5014768;28;20049;-81
2022/12/14 11:40:18;;;;;;;61.97;25.17;;;;;;;;;;5006116;28;20473;-80
2022/12/14 11:42:48;;;;;;;57.03;22.90;;;;;;;;;;5013697;28;20030;-80
2022/12/14 11:45:23;;;;;;;49.60;22.60;;;;;;;;;;5014099;28;20395;-80
2022/12/14 11:47:49;;;;;;;;;;;;;;;;;;5011182;28;20054;-81
2022/12/14 11:50:23;;;;;;;43.70;21.65;;;;;;;;;;5007126;28;19965;-80
2022/12/14 11:52:49;;;;;;;47.42;22.30;;;;;;;;;;5007661;28;20498;-78
2022/12/14 11:55:17;;;;;;;48.40;20.40;;;;;;;;;;5015789;28;20021;-77
2022/12/14 11:57:54;;;;;;;49.33;20.73;;;;;;;;;;5017396;28;20033;-77
2022/12/14 12:00:40;;;;;;;47.80;21.58;;;;;;;;;;5017131;28;20034;-77
2022/12/14 12:03:06;;;;;;;50.33;19.48;;;;;;;;;;5017348;28;20056;-78
2022/12/14 12:05:33;;;;;;;46.97;19.20;;;;;;;;;;5017506;28;20038;-80
2022/12/14 12:08:01;;;;;;;48.08;19.40;;;;;;;;;;5016213;28;20041;-78
2022/12/14 12:10:47;;;;;;;39.53;17.98;;;;;;;;;;5018281;28;20015;-79
2022/12/14 12:13:19;;;;;;;45.03;22.92;;;;;;;;;;5011000;28;20465;-79
2022/12/14 12:16:01;;;;;;;42.03;21.90;;;;;;;;;;5010616;28;20027;-80
2022/12/14 12:18:33;;;;;;;43.45;22.02;;;;;;;;;;5012224;28;20019;-79
2022/12/14 12:21:09;;;;;;;40.42;19.90;;;;;;;;;;5013031;28;20062;-79
2022/12/14 12:23:39;;;;;;;39.60;18.45;;;;;;;;;;5009180;28;20062;-81
2022/12/14 12:26:24;;;;;;;41.13;19.65;;;;;;;;;;5008836;28;20037;-82
2022/12/14 12:28:56;;;;;;;48.88;19.55;;;;;;;;;;5005842;28;20424;-82
2022/12/14 12:31:26;;;;;;;44.78;19.77;;;;;;;;;;5014161;28;20152;-81
2022/12/14 12:33:57;;;;;;;38.42;17.92;;;;;;;;;;5015015;28;20536;-81
2022/12/14 12:36:23;;;;;;;40.75;19.20;;;;;;;;;;5013523;28;20013;-81
2022/12/14 12:38:56;;;;;;;41.50;18.33;;;;;;;;;;5008892;28;20026;-80
2022/12/14 12:41:34;;;;;;;46.78;22.33;;;;;;;;;;5008739;28;20023;-82
2022/12/14 12:44:05;;;;;;;37.20;18.55;;;;;;;;;;5006200;28;20057;-82
2022/12/14 12:46:44;;;;;;;38.92;18.45;;;;;;;;;;5006857;28;20049;-80
2022/12/14 12:49:12;;;;;;;46.25;19.20;;;;;;;;;;5006685;28;20113;-82
2022/12/14 12:51:42;;;;;;;34.58;18.90;;;;;;;;;;5008859;28;20026;-81
2022/12/14 12:54:11;;;;;;;39.10;18.52;;;;;;;;;;5014250;28;20073;-80
2022/12/14 12:56:54;;;;;;;40.70;18.13;;;;;;;;;;5013720;28;20057;-80
2022/12/14 12:59:30;;;;;;;36.42;17.88;;;;;;;;;;5009628;28;20053;-81
2022/12/14 13:01:58;;;;;;;37.97;19.15;;;;;;;;;;5008693;28;20054;-83
2022/12/14 13:04:36;;;;;;;40.47;17.85;;;;;;;;;;5019529;28;20089;-82
2022/12/14 13:07:04;;;;;;;34.05;17.23;;;;;;;;;;5018137;28;20044;-82
2022/12/14 13:09:41;;;;;;;39.20;18.67;;;;;;;;;;5016989;28;20022;-80
2022/12/14 13:12:11;;;;;;;39.05;20.02;;;;;;;;;;5016157;28;20040;-80
2022/12/14 13:14:37;;;;;;;39.72;18.73;;;;;;;;;;5015642;28;20041;-78
2022/12/14 13:17:06;;;;;;;35.15;18.52;;;;;;;;;;5017651;28;20090;-79
2022/12/14 13:19:43;;;;;;;46.15;19.58;;;;;;;;;;5019364;28;20060;-80
2022/12/14 13:22:12;;;;;;;35.50;18.33;;;;;;;;;;5017542;28;20131;-81
2022/12/14 13:24:38;;;;;;;53.50;24.40;;;;;;;;;;5019004;28;20023;-80
2022/12/14 13:27:31;;;;;;;44.70;19.48;;;;;;;;;;5018788;28;20023;-80
2022/12/14 13:30:16;;;;;;;47.40;19.73;;;;;;;;;;5017442;28;20056;-81
2022/12/14 13:33:12;;;;;;;55.20;19.88;;;;;;;;;;5018194;28;20059;-81
2022/12/14 13:35:38;;;;;;;;;;;;;;;;;;5014220;28;20018;-81
2022/12/14 13:38:13;;;;;;;49.15;19.92;;;;;;;;;;5016904;28;20286;-78
2022/12/14 13:40:44;;;;;;;44.40;19.00;;;;;;;;;;5010867;28;20070;-81
2022/12/14 13:43:10;;;;;;;56.60;22.15;;;;;;;;;;5018984;28;20022;-79
2022/12/14 13:45:41;;;;;;;42.58;20.08;;;;;;;;;;5016182;28;20038;-81
2022/12/14 13:48:14;;;;;;;55.05;19.10;;;;;;;;;;5013435;28;20029;-79
2022/12/14 13:50:41;;;;;;;62.20;28.13;;;;;;;;;;5008036;28;20026;-80
2022/12/14 13:53:14;;;;;;;43.50;18.70;;;;;;;;;;5011228;28;20006;-80
2022/12/14 13:55:47;;;;;;;46.85;19.25;;;;;;;;;;5008918;28;20092;-80
2022/12/14 13:58:13;;;;;;;52.00;21.67;;;;;;;;;;5008794;28;20030;-80
2022/12/14 14:00:45;;;;;;;41.03;19.85;;;;;;;;;;5003904;28;20312;-81
2022/12/14 14:03:31;;;;;;;48.08;20.85;;;;;;;;;;5008304;28;20077;-82
2022/12/14 14:06:00;;;;;;;43.72;21.02;;;;;;;;;;4998735;28;20137;-81
2022/12/14 14:08:28;;;;;;;44.25;20.23;;;;;;;;;;5016677;28;20077;-81
2022/12/14 14:10:54;;;;;;;49.38;20.70;;;;;;;;;;5014466;28;20196;-81
2022/12/14 14:13:26;;;;;;;52.60;23.20;;;;;;;;;;5010089;28;20382;-82
2022/12/14 14:15:54;;;;;;;46.00;20.80;;;;;;;;;;5009736;28;20022;-79
2022/12/14 14:18:22;;;;;;;49.88;21.20;;;;;;;;;;5005574;28;20023;-80
2022/12/14 14:20:52;;;;;;;50.05;21.65;;;;;;;;;;5001734;28;20492;-81
2022/12/14 14:23:20;;;;;;;50.53;22.13;;;;;;;;;;5000829;28;20105;-82
2022/12/14 14:25:53;;;;;;;53.88;22.70;;;;;;;;;;5002957;28;20022;-81
2022/12/14 14:28:20;;;;;;;56.22;21.98;;;;;;;;;;5001633;28;20029;-82
2022/12/14 14:30:50;;;;;;;49.72;21.95;;;;;;;;;;5006065;28;20035;-80
2022/12/14 14:33:33;;;;;;;56.03;23.17;;;;;;;;;;5013199;28;20419;-80
2022/12/14 14:36:08;;;;;;;64.30;22.73;;;;;;;;;;5009741;28;20040;-81
2022/12/14 14:38:35;;;;;;;52.47;22.17;;;;;;;;;;4983564;28;20540;-82
2022/12/14 14:41:08;;;;;;;59.38;22.02;;;;;;;;;;5000194;28;20022;-81
2022/12/14 14:43:38;;;;;;;61.78;22.58;;;;;;;;;;4989180;28;20022;-83